sensor_id;sensor_type;location;lat;lon;timestamp;P1;durP1;ratioP1;P2;durP2;ratioP2
67181;SDS011;54114;53.524;49.396;2022-09-21T00:01:16;11.63;;;7.03;;
67181;SDS011;54114;53.524;49.396;2022-09-21T00:03:53;16.33;;;7.60;;
67181;SDS011;54114;53.524;49.396;2022-09-21T00:06:26;12.48;;;7.07;;
67181;SDS011;54114;53.524;49.396;2022-09-21T00:08:55;14.40;;;8.30;;
67181;SDS011;54114;53.524;49.396;2022-09-21T00:11:24;15.55;;;7.72;;
67181;SDS011;54114;53.524;49.396;2022-09-21T00:13:54;15.57;;;7.62;;
67181;SDS011;54114;53.524;49.396;2022-09-21T00:16:25;10.68;;;6.68;;
67181;SDS011;54114;53.524;49.396;2022-09-21T00:18:53;10.63;;;6.72;;
67181;SDS011;54114;53.524;49.396;2022-09-21T00:21:19;11.38;;;7.70;;
67181;SDS011;54114;53.524;49.396;2022-09-21T00:23:46;14.93;;;7.68;;
67181;SDS011;54114;53.524;49.396;2022-09-21T00:26:15;10.18;;;6.87;;
67181;SDS011;54114;53.524;49.396;2022-09-21T00:28:45;16.33;;;7.28;;
67181;SDS011;54114;53.524;49.396;2022-09-21T00:31:16;12.18;;;6.97;;
67181;SDS011;54114;53.524;49.396;2022-09-21T00:33:43;15.00;;;7.15;;
67181;SDS011;54114;53.524;49.396;2022-09-21T00:36:16;19.90;;;8.63;;
67181;SDS011;54114;53.524;49.396;2022-09-21T00:38:51;11.43;;;6.82;;
67181;SDS011;54114;53.524;49.396;2022-09-21T00:41:23;11.68;;;6.65;;
67181;SDS011;54114;53.524;49.396;2022-09-21T00:46:54;15.23;;;7.32;;
67181;SDS011;54114;53.524;49.396;2022-09-21T00:49:36;16.40;;;7.60;;
67181;SDS011;54114;53.524;49.396;2022-09-21T00:52:04;12.90;;;7.60;;
67181;SDS011;54114;53.524;49.396;2022-09-21T00:54:34;14.98;;;8.20;;
67181;SDS011;54114;53.524;49.396;2022-09-21T00:57:09;10.32;;;7.43;;
67181;SDS011;54114;53.524;49.396;2022-09-21T00:59:36;11.10;;;6.00;;
67181;SDS011;54114;53.524;49.396;2022-09-21T01:02:04;11.85;;;6.53;;
67181;SDS011;54114;53.524;49.396;2022-09-21T01:04:31;10.80;;;7.43;;
67181;SDS011;54114;53.524;49.396;2022-09-21T01:07:00;16.92;;;7.45;;
67181;SDS011;54114;53.524;49.396;2022-09-21T01:09:31;12.93;;;6.47;;
67181;SDS011;54114;53.524;49.396;2022-09-21T01:15:13;9.15;;;6.60;;
67181;SDS011;54114;53.524;49.396;2022-09-21T01:21:16;9.35;;;6.68;;
67181;SDS011;54114;53.524;49.396;2022-09-21T01:26:56;11.43;;;6.72;;
67181;SDS011;54114;53.524;49.396;2022-09-21T01:32:22;11.98;;;6.82;;
67181;SDS011;54114;53.524;49.396;2022-09-21T01:35:29;10.90;;;7.53;;
67181;SDS011;54114;53.524;49.396;2022-09-21T01:38:13;9.20;;;5.95;;
67181;SDS011;54114;53.524;49.396;2022-09-21T01:40:57;10.68;;;6.62;;
67181;SDS011;54114;53.524;49.396;2022-09-21T01:43:33;12.13;;;6.95;;
67181;SDS011;54114;53.524;49.396;2022-09-21T01:46:05;10.70;;;6.65;;
67181;SDS011;54114;53.524;49.396;2022-09-21T01:48:38;10.60;;;7.22;;
67181;SDS011;54114;53.524;49.396;2022-09-21T01:51:10;10.93;;;7.68;;
67181;SDS011;54114;53.524;49.396;2022-09-21T01:56:22;15.18;;;7.03;;
67181;SDS011;54114;53.524;49.396;2022-09-21T02:01:52;11.88;;;7.03;;
67181;SDS011;54114;53.524;49.396;2022-09-21T02:06:52;13.95;;;7.90;;
67181;SDS011;54114;53.524;49.396;2022-09-21T02:09:19;9.95;;;6.82;;
67181;SDS011;54114;53.524;49.396;2022-09-21T02:11:46;12.10;;;6.62;;
67181;SDS011;54114;53.524;49.396;2022-09-21T02:14:16;8.63;;;6.35;;
67181;SDS011;54114;53.524;49.396;2022-09-21T02:17:10;9.32;;;6.55;;
67181;SDS011;54114;53.524;49.396;2022-09-21T02:20:29;13.05;;;7.28;;
67181;SDS011;54114;53.524;49.396;2022-09-21T02:31:46;11.70;;;6.25;;
67181;SDS011;54114;53.524;49.396;2022-09-21T02:34:27;11.38;;;5.82;;
67181;SDS011;54114;53.524;49.396;2022-09-21T02:37:08;9.27;;;5.93;;
67181;SDS011;54114;53.524;49.396;2022-09-21T02:42:21;9.65;;;5.00;;
67181;SDS011;54114;53.524;49.396;2022-09-21T02:44:57;7.18;;;5.07;;
67181;SDS011;54114;53.524;49.396;2022-09-21T02:47:45;11.77;;;5.03;;
67181;SDS011;54114;53.524;49.396;2022-09-21T02:50:34;11.05;;;4.90;;
67181;SDS011;54114;53.524;49.396;2022-09-21T02:53:09;8.70;;;5.30;;
67181;SDS011;54114;53.524;49.396;2022-09-21T02:55:38;6.97;;;4.72;;
67181;SDS011;54114;53.524;49.396;2022-09-21T02:58:07;8.60;;;4.87;;
67181;SDS011;54114;53.524;49.396;2022-09-21T03:00:37;6.70;;;4.57;;
67181;SDS011;54114;53.524;49.396;2022-09-21T03:03:17;10.40;;;4.95;;
67181;SDS011;54114;53.524;49.396;2022-09-21T03:05:48;11.27;;;5.10;;
67181;SDS011;54114;53.524;49.396;2022-09-21T03:08:18;10.73;;;4.68;;
67181;SDS011;54114;53.524;49.396;2022-09-21T03:10:46;17.12;;;5.45;;
67181;SDS011;54114;53.524;49.396;2022-09-21T03:13:15;23.70;;;5.45;;
67181;SDS011;54114;53.524;49.396;2022-09-21T03:15:43;9.95;;;5.30;;
67181;SDS011;54114;53.524;49.396;2022-09-21T03:18:12;13.00;;;5.15;;
67181;SDS011;54114;53.524;49.396;2022-09-21T03:20:40;12.15;;;5.32;;
67181;SDS011;54114;53.524;49.396;2022-09-21T03:23:12;12.23;;;5.70;;
67181;SDS011;54114;53.524;49.396;2022-09-21T03:25:39;14.40;;;5.95;;
67181;SDS011;54114;53.524;49.396;2022-09-21T03:28:10;17.08;;;6.00;;
67181;SDS011;54114;53.524;49.396;2022-09-21T03:30:37;18.90;;;6.78;;
67181;SDS011;54114;53.524;49.396;2022-09-21T03:33:04;16.58;;;6.25;;
67181;SDS011;54114;53.524;49.396;2022-09-21T03:35:32;14.00;;;6.78;;
67181;SDS011;54114;53.524;49.396;2022-09-21T03:38:00;16.55;;;7.22;;
67181;SDS011;54114;53.524;49.396;2022-09-21T03:40:26;17.98;;;8.43;;
67181;SDS011;54114;53.524;49.396;2022-09-21T03:42:54;17.85;;;6.72;;
67181;SDS011;54114;53.524;49.396;2022-09-21T03:45:21;16.65;;;6.87;;
67181;SDS011;54114;53.524;49.396;2022-09-21T03:47:47;23.00;;;7.00;;
67181;SDS011;54114;53.524;49.396;2022-09-21T03:50:14;9.95;;;5.22;;
67181;SDS011;54114;53.524;49.396;2022-09-21T03:52:41;15.15;;;5.57;;
67181;SDS011;54114;53.524;49.396;2022-09-21T03:55:08;11.73;;;5.90;;
67181;SDS011;54114;53.524;49.396;2022-09-21T03:57:35;23.62;;;6.65;;
67181;SDS011;54114;53.524;49.396;2022-09-21T04:00:05;23.70;;;5.87;;
67181;SDS011;54114;53.524;49.396;2022-09-21T04:02:35;20.52;;;5.60;;
67181;SDS011;54114;53.524;49.396;2022-09-21T04:05:05;17.20;;;6.00;;
67181;SDS011;54114;53.524;49.396;2022-09-21T04:07:39;20.92;;;6.62;;
67181;SDS011;54114;53.524;49.396;2022-09-21T04:10:08;31.33;;;7.65;;
67181;SDS011;54114;53.524;49.396;2022-09-21T04:12:38;23.02;;;6.90;;
67181;SDS011;54114;53.524;49.396;2022-09-21T04:15:11;18.33;;;5.72;;
67181;SDS011;54114;53.524;49.396;2022-09-21T04:17:50;22.02;;;6.20;;
67181;SDS011;54114;53.524;49.396;2022-09-21T04:20:19;21.12;;;6.00;;
67181;SDS011;54114;53.524;49.396;2022-09-21T04:22:46;22.15;;;6.05;;
67181;SDS011;54114;53.524;49.396;2022-09-21T04:25:13;28.20;;;8.27;;
67181;SDS011;54114;53.524;49.396;2022-09-21T04:27:41;13.07;;;5.80;;
67181;SDS011;54114;53.524;49.396;2022-09-21T04:30:12;16.48;;;5.20;;
67181;SDS011;54114;53.524;49.396;2022-09-21T04:32:40;13.52;;;5.45;;
67181;SDS011;54114;53.524;49.396;2022-09-21T04:35:07;18.90;;;6.15;;
67181;SDS011;54114;53.524;49.396;2022-09-21T04:37:35;17.10;;;5.62;;
67181;SDS011;54114;53.524;49.396;2022-09-21T04:40:02;10.52;;;4.50;;
67181;SDS011;54114;53.524;49.396;2022-09-21T04:42:30;6.25;;;4.22;;
67181;SDS011;54114;53.524;49.396;2022-09-21T04:44:56;8.98;;;4.60;;
67181;SDS011;54114;53.524;49.396;2022-09-21T04:47:23;8.43;;;5.28;;
67181;SDS011;54114;53.524;49.396;2022-09-21T04:49:50;7.95;;;4.28;;
67181;SDS011;54114;53.524;49.396;2022-09-21T04:52:17;9.85;;;4.82;;
67181;SDS011;54114;53.524;49.396;2022-09-21T04:54:45;8.10;;;4.50;;
67181;SDS011;54114;53.524;49.396;2022-09-21T04:57:15;8.60;;;4.68;;
67181;SDS011;54114;53.524;49.396;2022-09-21T04:59:41;9.38;;;4.62;;
67181;SDS011;54114;53.524;49.396;2022-09-21T05:02:08;10.15;;;4.97;;
67181;SDS011;54114;53.524;49.396;2022-09-21T05:04:35;7.95;;;4.78;;
67181;SDS011;54114;53.524;49.396;2022-09-21T05:07:01;9.55;;;4.65;;
67181;SDS011;54114;53.524;49.396;2022-09-21T05:09:28;5.72;;;4.32;;
67181;SDS011;54114;53.524;49.396;2022-09-21T05:14:40;15.20;;;4.53;;
67181;SDS011;54114;53.524;49.396;2022-09-21T05:17:10;8.32;;;4.62;;
67181;SDS011;54114;53.524;49.396;2022-09-21T05:19:37;10.38;;;4.70;;
67181;SDS011;54114;53.524;49.396;2022-09-21T05:22:04;12.70;;;4.82;;
67181;SDS011;54114;53.524;49.396;2022-09-21T05:24:31;8.27;;;4.78;;
67181;SDS011;54114;53.524;49.396;2022-09-21T05:26:58;7.37;;;4.32;;
67181;SDS011;54114;53.524;49.396;2022-09-21T05:29:25;12.68;;;5.60;;
67181;SDS011;54114;53.524;49.396;2022-09-21T05:40:44;11.35;;;5.18;;
67181;SDS011;54114;53.524;49.396;2022-09-21T05:43:14;14.13;;;4.68;;
67181;SDS011;54114;53.524;49.396;2022-09-21T05:45:46;12.82;;;5.47;;
67181;SDS011;54114;53.524;49.396;2022-09-21T05:48:27;7.22;;;4.40;;
67181;SDS011;54114;53.524;49.396;2022-09-21T05:51:23;9.05;;;4.50;;
67181;SDS011;54114;53.524;49.396;2022-09-21T06:00:19;7.80;;;5.12;;
67181;SDS011;54114;53.524;49.396;2022-09-21T06:05:57;10.90;;;4.85;;
67181;SDS011;54114;53.524;49.396;2022-09-21T06:08:24;9.88;;;4.12;;
67181;SDS011;54114;53.524;49.396;2022-09-21T06:10:52;6.20;;;4.20;;
67181;SDS011;54114;53.524;49.396;2022-09-21T06:13:19;6.95;;;4.30;;
67181;SDS011;54114;53.524;49.396;2022-09-21T06:15:46;9.48;;;4.40;;
67181;SDS011;54114;53.524;49.396;2022-09-21T06:18:13;16.15;;;4.60;;
67181;SDS011;54114;53.524;49.396;2022-09-21T06:20:40;6.18;;;4.18;;
67181;SDS011;54114;53.524;49.396;2022-09-21T06:23:07;7.47;;;4.37;;
67181;SDS011;54114;53.524;49.396;2022-09-21T06:25:36;7.65;;;3.78;;
67181;SDS011;54114;53.524;49.396;2022-09-21T06:28:07;4.57;;;3.87;;
67181;SDS011;54114;53.524;49.396;2022-09-21T06:30:37;7.72;;;4.18;;
67181;SDS011;54114;53.524;49.396;2022-09-21T06:33:06;6.32;;;3.50;;
67181;SDS011;54114;53.524;49.396;2022-09-21T06:35:34;4.22;;;3.30;;
67181;SDS011;54114;53.524;49.396;2022-09-21T06:38:03;6.40;;;3.30;;
67181;SDS011;54114;53.524;49.396;2022-09-21T06:40:32;9.45;;;3.75;;
67181;SDS011;54114;53.524;49.396;2022-09-21T06:43:02;8.55;;;3.70;;
67181;SDS011;54114;53.524;49.396;2022-09-21T06:45:29;9.27;;;3.72;;
67181;SDS011;54114;53.524;49.396;2022-09-21T06:47:57;7.50;;;3.70;;
67181;SDS011;54114;53.524;49.396;2022-09-21T06:50:24;7.03;;;3.78;;
67181;SDS011;54114;53.524;49.396;2022-09-21T06:52:51;7.00;;;4.15;;
67181;SDS011;54114;53.524;49.396;2022-09-21T06:55:18;6.40;;;3.87;;
67181;SDS011;54114;53.524;49.396;2022-09-21T06:57:45;6.75;;;4.03;;
67181;SDS011;54114;53.524;49.396;2022-09-21T07:00:12;5.87;;;3.05;;
67181;SDS011;54114;53.524;49.396;2022-09-21T07:02:42;5.15;;;2.90;;
67181;SDS011;54114;53.524;49.396;2022-09-21T07:05:10;7.30;;;2.53;;
67181;SDS011;54114;53.524;49.396;2022-09-21T07:07:37;4.47;;;2.45;;
67181;SDS011;54114;53.524;49.396;2022-09-21T07:10:04;4.82;;;2.28;;
67181;SDS011;54114;53.524;49.396;2022-09-21T07:12:32;7.12;;;2.42;;
67181;SDS011;54114;53.524;49.396;2022-09-21T07:15:00;4.32;;;2.62;;
67181;SDS011;54114;53.524;49.396;2022-09-21T07:17:31;4.15;;;2.22;;
67181;SDS011;54114;53.524;49.396;2022-09-21T07:19:59;5.22;;;2.70;;
67181;SDS011;54114;53.524;49.396;2022-09-21T07:22:27;9.27;;;2.42;;
67181;SDS011;54114;53.524;49.396;2022-09-21T07:24:54;6.47;;;2.60;;
67181;SDS011;54114;53.524;49.396;2022-09-21T07:27:23;9.48;;;2.60;;
67181;SDS011;54114;53.524;49.396;2022-09-21T07:29:51;8.40;;;2.78;;
67181;SDS011;54114;53.524;49.396;2022-09-21T07:32:18;5.20;;;2.50;;
67181;SDS011;54114;53.524;49.396;2022-09-21T07:34:45;14.07;;;2.90;;
67181;SDS011;54114;53.524;49.396;2022-09-21T07:37:12;5.15;;;2.47;;
67181;SDS011;54114;53.524;49.396;2022-09-21T07:39:39;10.52;;;2.40;;
67181;SDS011;54114;53.524;49.396;2022-09-21T07:42:06;4.65;;;2.33;;
67181;SDS011;54114;53.524;49.396;2022-09-21T07:44:33;12.60;;;2.65;;
67181;SDS011;54114;53.524;49.396;2022-09-21T07:47:00;9.93;;;2.72;;
67181;SDS011;54114;53.524;49.396;2022-09-21T07:49:27;6.82;;;2.25;;
67181;SDS011;54114;53.524;49.396;2022-09-21T07:51:54;11.25;;;2.28;;
67181;SDS011;54114;53.524;49.396;2022-09-21T07:54:21;6.95;;;2.33;;
67181;SDS011;54114;53.524;49.396;2022-09-21T07:56:48;8.77;;;2.47;;
67181;SDS011;54114;53.524;49.396;2022-09-21T07:59:33;14.43;;;2.42;;
67181;SDS011;54114;53.524;49.396;2022-09-21T08:02:00;5.72;;;2.10;;
67181;SDS011;54114;53.524;49.396;2022-09-21T08:04:27;5.72;;;2.15;;
67181;SDS011;54114;53.524;49.396;2022-09-21T08:06:53;7.30;;;2.00;;
67181;SDS011;54114;53.524;49.396;2022-09-21T08:09:20;7.22;;;2.10;;
67181;SDS011;54114;53.524;49.396;2022-09-21T08:11:47;7.65;;;2.17;;
67181;SDS011;54114;53.524;49.396;2022-09-21T08:14:16;5.82;;;1.55;;
67181;SDS011;54114;53.524;49.396;2022-09-21T08:16:46;4.15;;;1.58;;
67181;SDS011;54114;53.524;49.396;2022-09-21T08:19:13;7.75;;;2.00;;
67181;SDS011;54114;53.524;49.396;2022-09-21T08:21:41;4.28;;;1.70;;
67181;SDS011;54114;53.524;49.396;2022-09-21T08:24:08;8.60;;;1.87;;
67181;SDS011;54114;53.524;49.396;2022-09-21T08:26:35;6.95;;;1.67;;
67181;SDS011;54114;53.524;49.396;2022-09-21T08:29:02;5.87;;;1.75;;
67181;SDS011;54114;53.524;49.396;2022-09-21T08:31:29;5.03;;;1.75;;
67181;SDS011;54114;53.524;49.396;2022-09-21T08:33:56;7.95;;;2.20;;
67181;SDS011;54114;53.524;49.396;2022-09-21T08:36:22;4.18;;;1.58;;
67181;SDS011;54114;53.524;49.396;2022-09-21T08:38:49;7.32;;;1.40;;
67181;SDS011;54114;53.524;49.396;2022-09-21T08:41:17;5.37;;;1.80;;
67181;SDS011;54114;53.524;49.396;2022-09-21T08:49:16;5.90;;;1.40;;
67181;SDS011;54114;53.524;49.396;2022-09-21T08:51:57;8.38;;;1.30;;
67181;SDS011;54114;53.524;49.396;2022-09-21T08:54:37;4.85;;;1.33;;
67181;SDS011;54114;53.524;49.396;2022-09-21T08:57:16;4.57;;;1.30;;
67181;SDS011;54114;53.524;49.396;2022-09-21T08:59:45;5.72;;;1.27;;
67181;SDS011;54114;53.524;49.396;2022-09-21T09:02:32;7.72;;;1.30;;
67181;SDS011;54114;53.524;49.396;2022-09-21T09:17:57;5.15;;;0.90;;
67181;SDS011;54114;53.524;49.396;2022-09-21T09:20:38;3.90;;;1.15;;
67181;SDS011;54114;53.524;49.396;2022-09-21T09:26:08;3.67;;;0.52;;
67181;SDS011;54114;53.524;49.396;2022-09-21T09:28:44;6.03;;;0.80;;
67181;SDS011;54114;53.524;49.396;2022-09-21T09:31:20;7.35;;;2.00;;
67181;SDS011;54114;53.524;49.396;2022-09-21T09:34:10;5.80;;;0.90;;
67181;SDS011;54114;53.524;49.396;2022-09-21T09:37:00;5.65;;;1.20;;
67181;SDS011;54114;53.524;49.396;2022-09-21T09:39:35;3.10;;;0.95;;
67181;SDS011;54114;53.524;49.396;2022-09-21T09:48:01;6.15;;;1.10;;
67181;SDS011;54114;53.524;49.396;2022-09-21T09:50:45;4.68;;;1.08;;
67181;SDS011;54114;53.524;49.396;2022-09-21T09:53:23;4.53;;;0.80;;
67181;SDS011;54114;53.524;49.396;2022-09-21T09:55:52;1.80;;;0.90;;
67181;SDS011;54114;53.524;49.396;2022-09-21T09:58:43;3.80;;;1.12;;
67181;SDS011;54114;53.524;49.396;2022-09-21T10:02:00;8.57;;;1.90;;
67181;SDS011;54114;53.524;49.396;2022-09-21T10:07:43;3.08;;;0.90;;
67181;SDS011;54114;53.524;49.396;2022-09-21T10:13:12;4.60;;;1.40;;
67181;SDS011;54114;53.524;49.396;2022-09-21T10:15:57;9.07;;;1.52;;
67181;SDS011;54114;53.524;49.396;2022-09-21T10:21:38;5.20;;;1.37;;
67181;SDS011;54114;53.524;49.396;2022-09-21T10:24:21;4.15;;;1.00;;
67181;SDS011;54114;53.524;49.396;2022-09-21T10:27:20;5.45;;;1.12;;
67181;SDS011;54114;53.524;49.396;2022-09-21T10:29:51;3.97;;;1.33;;
67181;SDS011;54114;53.524;49.396;2022-09-21T10:32:23;4.97;;;1.35;;
67181;SDS011;54114;53.524;49.396;2022-09-21T10:35:10;8.23;;;1.52;;
67181;SDS011;54114;53.524;49.396;2022-09-21T10:37:43;4.12;;;1.60;;
67181;SDS011;54114;53.524;49.396;2022-09-21T10:42:45;11.95;;;1.80;;
67181;SDS011;54114;53.524;49.396;2022-09-21T10:45:17;5.60;;;1.83;;
67181;SDS011;54114;53.524;49.396;2022-09-21T10:47:50;13.10;;;2.20;;
67181;SDS011;54114;53.524;49.396;2022-09-21T10:50:41;6.57;;;2.67;;
67181;SDS011;54114;53.524;49.396;2022-09-21T10:53:32;4.68;;;2.00;;
67181;SDS011;54114;53.524;49.396;2022-09-21T10:59:27;13.18;;;3.28;;
67181;SDS011;54114;53.524;49.396;2022-09-21T11:01:47;10.48;;;2.92;;
67181;SDS011;54114;53.524;49.396;2022-09-21T11:06:43;11.90;;;3.12;;
67181;SDS011;54114;53.524;49.396;2022-09-21T11:09:41;8.57;;;2.83;;
67181;SDS011;54114;53.524;49.396;2022-09-21T11:20:41;8.43;;;2.53;;
67181;SDS011;54114;53.524;49.396;2022-09-21T11:23:43;5.35;;;2.03;;
67181;SDS011;54114;53.524;49.396;2022-09-21T11:26:59;4.45;;;2.20;;
67181;SDS011;54114;53.524;49.396;2022-09-21T11:29:47;7.10;;;2.28;;
67181;SDS011;54114;53.524;49.396;2022-09-21T11:35:56;6.00;;;1.70;;
67181;SDS011;54114;53.524;49.396;2022-09-21T11:39:10;6.45;;;1.90;;
67181;SDS011;54114;53.524;49.396;2022-09-21T11:48:37;7.05;;;2.70;;
67181;SDS011;54114;53.524;49.396;2022-09-21T11:51:42;10.23;;;3.00;;
67181;SDS011;54114;53.524;49.396;2022-09-21T11:57:25;14.50;;;3.22;;
67181;SDS011;54114;53.524;49.396;2022-09-21T12:05:49;9.25;;;2.83;;
67181;SDS011;54114;53.524;49.396;2022-09-21T12:09:31;11.15;;;2.92;;
67181;SDS011;54114;53.524;49.396;2022-09-21T12:11:55;5.80;;;2.25;;
67181;SDS011;54114;53.524;49.396;2022-09-21T12:20:17;10.73;;;3.22;;
67181;SDS011;54114;53.524;49.396;2022-09-21T12:23:10;8.90;;;3.30;;
67181;SDS011;54114;53.524;49.396;2022-09-21T12:25:54;9.82;;;3.08;;
67181;SDS011;54114;53.524;49.396;2022-09-21T12:28:25;13.60;;;3.78;;
67181;SDS011;54114;53.524;49.396;2022-09-21T12:31:17;11.00;;;4.22;;
67181;SDS011;54114;53.524;49.396;2022-09-21T12:33:57;12.68;;;4.03;;
67181;SDS011;54114;53.524;49.396;2022-09-21T12:36:45;16.30;;;4.40;;
67181;SDS011;54114;53.524;49.396;2022-09-21T12:39:55;11.88;;;4.50;;
67181;SDS011;54114;53.524;49.396;2022-09-21T12:45:58;13.80;;;3.73;;
67181;SDS011;54114;53.524;49.396;2022-09-21T12:48:30;8.18;;;2.47;;
67181;SDS011;54114;53.524;49.396;2022-09-21T12:51:14;6.18;;;2.60;;
67181;SDS011;54114;53.524;49.396;2022-09-21T12:54:05;5.50;;;2.65;;
67181;SDS011;54114;53.524;49.396;2022-09-21T12:57:10;4.28;;;2.33;;
67181;SDS011;54114;53.524;49.396;2022-09-21T13:00:05;8.93;;;2.28;;
67181;SDS011;54114;53.524;49.396;2022-09-21T13:02:50;4.87;;;1.85;;
67181;SDS011;54114;53.524;49.396;2022-09-21T13:06:01;3.90;;;1.87;;
67181;SDS011;54114;53.524;49.396;2022-09-21T13:08:55;5.20;;;2.28;;
67181;SDS011;54114;53.524;49.396;2022-09-21T13:11:26;10.43;;;2.42;;
67181;SDS011;54114;53.524;49.396;2022-09-21T13:13:57;4.47;;;1.98;;
67181;SDS011;54114;53.524;49.396;2022-09-21T13:16:31;5.20;;;1.73;;
67181;SDS011;54114;53.524;49.396;2022-09-21T13:19:04;5.28;;;2.25;;
67181;SDS011;54114;53.524;49.396;2022-09-21T13:22:08;7.93;;;1.98;;
67181;SDS011;54114;53.524;49.396;2022-09-21T13:25:17;5.95;;;1.90;;
67181;SDS011;54114;53.524;49.396;2022-09-21T13:57:45;10.05;;;2.65;;
67181;SDS011;54114;53.524;49.396;2022-09-21T14:05:23;6.45;;;3.03;;
67181;SDS011;54114;53.524;49.396;2022-09-21T14:10:47;10.52;;;2.12;;
67181;SDS011;54114;53.524;49.396;2022-09-21T14:24:34;3.90;;;2.03;;
67181;SDS011;54114;53.524;49.396;2022-09-21T14:30:03;8.30;;;2.47;;
67181;SDS011;54114;53.524;49.396;2022-09-21T14:32:46;10.48;;;3.20;;
67181;SDS011;54114;53.524;49.396;2022-09-21T14:35:45;9.52;;;2.78;;
67181;SDS011;54114;53.524;49.396;2022-09-21T14:38:23;11.02;;;3.28;;
67181;SDS011;54114;53.524;49.396;2022-09-21T14:41:00;8.68;;;3.08;;
67181;SDS011;54114;53.524;49.396;2022-09-21T14:43:32;13.15;;;3.55;;
67181;SDS011;54114;53.524;49.396;2022-09-21T14:46:17;7.65;;;3.03;;
67181;SDS011;54114;53.524;49.396;2022-09-21T14:51:55;7.57;;;2.92;;
67181;SDS011;54114;53.524;49.396;2022-09-21T15:00:34;14.25;;;4.85;;
67181;SDS011;54114;53.524;49.396;2022-09-21T15:12:53;20.45;;;7.80;;
67181;SDS011;54114;53.524;49.396;2022-09-21T15:18:32;14.05;;;6.72;;
67181;SDS011;54114;53.524;49.396;2022-09-21T15:21:19;8.50;;;4.93;;
67181;SDS011;54114;53.524;49.396;2022-09-21T15:23:52;11.45;;;4.35;;
67181;SDS011;54114;53.524;49.396;2022-09-21T15:26:23;6.87;;;3.72;;
67181;SDS011;54114;53.524;49.396;2022-09-21T15:28:56;10.27;;;5.10;;
67181;SDS011;54114;53.524;49.396;2022-09-21T15:31:32;9.95;;;4.57;;
67181;SDS011;54114;53.524;49.396;2022-09-21T15:34:06;14.13;;;5.07;;
67181;SDS011;54114;53.524;49.396;2022-09-21T15:36:36;13.52;;;5.15;;
67181;SDS011;54114;53.524;49.396;2022-09-21T15:39:04;9.30;;;4.57;;
67181;SDS011;54114;53.524;49.396;2022-09-21T15:41:44;12.27;;;5.32;;
67181;SDS011;54114;53.524;49.396;2022-09-21T15:44:17;13.50;;;5.10;;
67181;SDS011;54114;53.524;49.396;2022-09-21T15:46:51;21.70;;;6.40;;
67181;SDS011;54114;53.524;49.396;2022-09-21T15:49:26;18.90;;;7.07;;
67181;SDS011;54114;53.524;49.396;2022-09-21T15:54:59;28.92;;;7.30;;
67181;SDS011;54114;53.524;49.396;2022-09-21T15:57:46;15.45;;;7.47;;
67181;SDS011;54114;53.524;49.396;2022-09-21T16:00:22;19.58;;;7.75;;
67181;SDS011;54114;53.524;49.396;2022-09-21T16:08:26;17.48;;;6.00;;
67181;SDS011;54114;53.524;49.396;2022-09-21T16:11:17;17.85;;;6.93;;
67181;SDS011;54114;53.524;49.396;2022-09-21T16:14:02;15.32;;;6.72;;
67181;SDS011;54114;53.524;49.396;2022-09-21T16:19:43;17.37;;;7.18;;
67181;SDS011;54114;53.524;49.396;2022-09-21T16:25:18;22.85;;;9.63;;
67181;SDS011;54114;53.524;49.396;2022-09-21T16:27:58;17.77;;;8.50;;
67181;SDS011;54114;53.524;49.396;2022-09-21T16:30:54;29.45;;;15.50;;
67181;SDS011;54114;53.524;49.396;2022-09-21T16:33:42;24.25;;;10.77;;
67181;SDS011;54114;53.524;49.396;2022-09-21T16:38:46;27.20;;;12.55;;
67181;SDS011;54114;53.524;49.396;2022-09-21T16:41:18;17.80;;;8.18;;
67181;SDS011;54114;53.524;49.396;2022-09-21T16:43:46;23.02;;;8.05;;
67181;SDS011;54114;53.524;49.396;2022-09-21T16:46:15;22.95;;;9.98;;
67181;SDS011;54114;53.524;49.396;2022-09-21T16:48:43;16.08;;;7.93;;
67181;SDS011;54114;53.524;49.396;2022-09-21T16:51:13;18.27;;;8.15;;
67181;SDS011;54114;53.524;49.396;2022-09-21T16:53:50;13.52;;;6.57;;
67181;SDS011;54114;53.524;49.396;2022-09-21T16:56:17;16.37;;;8.27;;
67181;SDS011;54114;53.524;49.396;2022-09-21T16:58:44;20.33;;;8.07;;
67181;SDS011;54114;53.524;49.396;2022-09-21T17:01:12;21.80;;;8.68;;
67181;SDS011;54114;53.524;49.396;2022-09-21T17:03:45;25.90;;;8.27;;
67181;SDS011;54114;53.524;49.396;2022-09-21T17:06:19;20.95;;;8.35;;
67181;SDS011;54114;53.524;49.396;2022-09-21T17:08:46;16.23;;;6.60;;
67181;SDS011;54114;53.524;49.396;2022-09-21T17:11:14;12.90;;;6.37;;
67181;SDS011;54114;53.524;49.396;2022-09-21T17:13:47;17.25;;;7.70;;
67181;SDS011;54114;53.524;49.396;2022-09-21T17:16:15;15.15;;;6.93;;
67181;SDS011;54114;53.524;49.396;2022-09-21T17:18:44;16.52;;;7.35;;
67181;SDS011;54114;53.524;49.396;2022-09-21T17:21:13;15.20;;;6.47;;
67181;SDS011;54114;53.524;49.396;2022-09-21T17:23:41;11.90;;;5.47;;
67181;SDS011;54114;53.524;49.396;2022-09-21T17:26:18;14.48;;;6.03;;
67181;SDS011;54114;53.524;49.396;2022-09-21T17:28:45;12.13;;;5.97;;
67181;SDS011;54114;53.524;49.396;2022-09-21T17:31:13;10.88;;;6.00;;
67181;SDS011;54114;53.524;49.396;2022-09-21T17:33:44;14.63;;;5.68;;
67181;SDS011;54114;53.524;49.396;2022-09-21T17:36:15;10.07;;;5.47;;
67181;SDS011;54114;53.524;49.396;2022-09-21T17:38:43;11.65;;;6.07;;
67181;SDS011;54114;53.524;49.396;2022-09-21T17:41:23;10.23;;;4.87;;
67181;SDS011;54114;53.524;49.396;2022-09-21T17:46:52;10.57;;;5.18;;
67181;SDS011;54114;53.524;49.396;2022-09-21T17:49:29;8.90;;;5.55;;
67181;SDS011;54114;53.524;49.396;2022-09-21T17:51:56;13.00;;;6.37;;
67181;SDS011;54114;53.524;49.396;2022-09-21T17:54:42;11.20;;;6.47;;
67181;SDS011;54114;53.524;49.396;2022-09-21T17:57:46;7.87;;;4.95;;
67181;SDS011;54114;53.524;49.396;2022-09-21T18:03:18;10.52;;;4.28;;
67181;SDS011;54114;53.524;49.396;2022-09-21T18:05:51;20.90;;;5.10;;
67181;SDS011;54114;53.524;49.396;2022-09-21T18:08:22;8.57;;;4.97;;
67181;SDS011;54114;53.524;49.396;2022-09-21T18:10:56;5.93;;;4.18;;
67181;SDS011;54114;53.524;49.396;2022-09-21T18:13:59;11.30;;;4.72;;
67181;SDS011;54114;53.524;49.396;2022-09-21T18:25:58;16.30;;;5.40;;
67181;SDS011;54114;53.524;49.396;2022-09-21T18:28:39;10.60;;;5.10;;
67181;SDS011;54114;53.524;49.396;2022-09-21T18:40:30;7.28;;;4.22;;
67181;SDS011;54114;53.524;49.396;2022-09-21T18:46:40;10.80;;;5.43;;
67181;SDS011;54114;53.524;49.396;2022-09-21T18:52:47;18.87;;;5.80;;
67181;SDS011;54114;53.524;49.396;2022-09-21T18:55:26;10.55;;;5.18;;
67181;SDS011;54114;53.524;49.396;2022-09-21T18:57:57;11.88;;;5.25;;
67181;SDS011;54114;53.524;49.396;2022-09-21T19:00:26;13.23;;;5.28;;
67181;SDS011;54114;53.524;49.396;2022-09-21T19:03:06;8.88;;;4.80;;
67181;SDS011;54114;53.524;49.396;2022-09-21T19:05:38;12.13;;;5.28;;
67181;SDS011;54114;53.524;49.396;2022-09-21T19:08:28;11.55;;;4.93;;
67181;SDS011;54114;53.524;49.396;2022-09-21T19:13:50;8.40;;;4.03;;
67181;SDS011;54114;53.524;49.396;2022-09-21T19:17:01;18.35;;;6.12;;
67181;SDS011;54114;53.524;49.396;2022-09-21T19:23:03;11.88;;;5.53;;
67181;SDS011;54114;53.524;49.396;2022-09-21T19:26:07;12.02;;;4.15;;
67181;SDS011;54114;53.524;49.396;2022-09-21T19:28:46;8.90;;;4.68;;
67181;SDS011;54114;53.524;49.396;2022-09-21T19:31:39;9.10;;;4.85;;
67181;SDS011;54114;53.524;49.396;2022-09-21T19:34:13;16.20;;;4.90;;
67181;SDS011;54114;53.524;49.396;2022-09-21T19:36:43;15.45;;;5.70;;
67181;SDS011;54114;53.524;49.396;2022-09-21T19:39:14;14.73;;;5.68;;